createdAt,value
2022-10-19T00:02:22.780Z,10.98
2022-10-19T00:04:49.418Z,10.93
2022-10-19T00:07:16.098Z,10.98
2022-10-19T00:09:44.510Z,10.96
2022-10-19T00:12:12.948Z,10.99
2022-10-19T00:14:39.697Z,10.93
2022-10-19T00:17:06.236Z,10.99
2022-10-19T00:19:32.837Z,11.00
2022-10-19T00:21:59.391Z,10.93
2022-10-19T00:24:26.002Z,11.01
2022-10-19T00:26:52.699Z,10.96
2022-10-19T00:29:19.330Z,10.98
2022-10-19T00:31:46.022Z,10.96
2022-10-19T00:34:12.677Z,10.94
2022-10-19T00:36:40.781Z,10.94
2022-10-19T00:39:11.339Z,10.89
2022-10-19T00:41:38.780Z,10.86
2022-10-19T00:44:27.133Z,10.93
2022-10-19T00:46:53.974Z,10.90
2022-10-19T00:49:24.458Z,10.85
2022-10-19T00:51:55.582Z,10.93
2022-10-19T00:54:23.869Z,10.97
2022-10-19T00:56:53.329Z,10.91
2022-10-19T00:59:22.220Z,10.88
2022-10-19T01:01:49.392Z,10.85
2022-10-19T01:04:16.361Z,10.87
2022-10-19T01:06:43.071Z,10.87
2022-10-19T01:09:09.737Z,10.83
2022-10-19T01:11:48.426Z,10.87
2022-10-19T01:14:30.170Z,10.92
2022-10-19T01:17:03.978Z,10.96
2022-10-19T01:19:52.256Z,10.96
2022-10-19T01:23:00.437Z,10.89
2022-10-19T01:25:36.003Z,10.83
2022-10-19T01:28:31.832Z,10.84
2022-10-19T01:31:23.156Z,10.86
2022-10-19T01:34:13.051Z,10.87
2022-10-19T01:37:00.857Z,10.97
2022-10-19T01:39:44.236Z,10.89
2022-10-19T01:42:26.369Z,10.86
2022-10-19T01:45:05.088Z,10.82
2022-10-19T01:47:38.617Z,10.74
2022-10-19T01:50:27.673Z,10.84
2022-10-19T01:52:56.573Z,10.78
2022-10-19T01:55:25.930Z,10.79
2022-10-19T01:57:58.527Z,10.76
2022-10-19T02:00:26.725Z,10.76
2022-10-19T02:02:54.858Z,10.77
2022-10-19T02:05:27.223Z,10.83
2022-10-19T02:07:59.681Z,10.85
2022-10-19T02:10:28.385Z,10.84
2022-10-19T02:12:56.118Z,10.72
2022-10-19T02:15:27.066Z,10.68
2022-10-19T02:17:57.375Z,10.68
2022-10-19T02:20:24.404Z,10.72
2022-10-19T02:22:51.086Z,10.73
2022-10-19T02:25:18.004Z,10.84
2022-10-19T02:27:44.993Z,10.88
2022-10-19T02:30:14.484Z,10.79
2022-10-19T02:32:42.304Z,10.71
2022-10-19T02:35:10.390Z,10.68
2022-10-19T02:37:37.166Z,10.66
2022-10-19T02:40:04.972Z,10.66
2022-10-19T02:42:40.622Z,10.61
2022-10-19T02:45:29.014Z,10.56
2022-10-19T02:48:01.067Z,10.45
2022-10-19T02:50:27.930Z,10.38
2022-10-19T02:52:54.473Z,10.46
2022-10-19T02:55:21.107Z,10.31
2022-10-19T02:57:47.648Z,10.31
2022-10-19T03:00:14.695Z,10.28
2022-10-19T03:02:42.705Z,10.20
2022-10-19T03:05:09.758Z,10.08
2022-10-19T03:07:36.868Z,10.06
2022-10-19T03:10:03.817Z,9.88
2022-10-19T03:12:30.392Z,9.77
2022-10-19T03:14:56.973Z,9.75
2022-10-19T03:17:23.671Z,9.66
2022-10-19T03:19:50.299Z,9.60
2022-10-19T03:22:16.896Z,9.54
2022-10-19T03:24:43.566Z,9.50
2022-10-19T03:27:10.181Z,9.42
2022-10-19T03:29:36.824Z,9.36
2022-10-19T03:32:03.725Z,9.32
2022-10-19T03:34:30.383Z,9.23
2022-10-19T03:36:59.138Z,9.16
2022-10-19T03:39:26.123Z,9.12
2022-10-19T03:41:52.867Z,9.06
2022-10-19T03:44:19.434Z,9.07
2022-10-19T03:46:46.006Z,9.08
2022-10-19T03:49:12.596Z,8.98
2022-10-19T03:51:39.189Z,8.88
2022-10-19T03:54:08.250Z,8.80
2022-10-19T03:56:36.093Z,8.74
2022-10-19T03:59:05.146Z,8.68
2022-10-19T04:01:40.301Z,8.68
2022-10-19T04:04:11.435Z,8.58
2022-10-19T04:06:41.426Z,8.52
2022-10-19T04:09:11.110Z,8.48
2022-10-19T04:11:38.245Z,8.42
2022-10-19T04:14:05.455Z,8.36
2022-10-19T04:16:32.648Z,8.36
2022-10-19T04:18:59.546Z,8.27
2022-10-19T04:21:31.813Z,8.23
2022-10-19T04:24:03.112Z,8.18
2022-10-19T04:26:30.401Z,8.13
2022-10-19T04:28:58.636Z,8.05
2022-10-19T04:31:26.007Z,7.98
2022-10-19T04:33:52.719Z,7.96
2022-10-19T04:36:19.672Z,7.88
2022-10-19T04:38:46.574Z,7.83
2022-10-19T04:41:17.465Z,7.75
2022-10-19T04:43:47.348Z,7.68
2022-10-19T04:46:17.153Z,7.74
2022-10-19T04:48:44.393Z,7.67
2022-10-19T04:51:11.684Z,7.64
2022-10-19T04:53:39.735Z,7.58
2022-10-19T04:56:09.278Z,7.50
2022-10-19T04:58:35.955Z,7.49
2022-10-19T05:01:15.147Z,7.45
2022-10-19T05:03:41.839Z,7.44
2022-10-19T05:06:09.550Z,7.37
2022-10-19T05:08:36.976Z,7.34
2022-10-19T05:11:05.898Z,7.29
2022-10-19T05:13:33.287Z,7.29
2022-10-19T05:16:01.657Z,7.26
2022-10-19T05:18:28.883Z,7.25
2022-10-19T05:21:21.968Z,7.24
2022-10-19T05:23:52.371Z,7.28
2022-10-19T05:26:21.118Z,7.24
2022-10-19T05:28:56.665Z,7.17
2022-10-19T05:31:29.252Z,7.20
2022-10-19T05:33:56.395Z,7.31
2022-10-19T05:36:28.764Z,7.30
2022-10-19T05:38:57.522Z,7.38
2022-10-19T05:41:25.530Z,7.40
2022-10-19T05:43:59.527Z,7.38
2022-10-19T05:46:28.396Z,7.36
2022-10-19T05:48:56.791Z,7.32
2022-10-19T05:51:24.825Z,7.31
2022-10-19T05:53:52.896Z,7.25
2022-10-19T05:56:25.805Z,7.22
2022-10-19T05:58:52.525Z,7.24
2022-10-19T06:01:20.094Z,7.24
2022-10-19T06:03:50.891Z,7.21
2022-10-19T06:06:17.910Z,7.18
2022-10-19T06:08:45.133Z,7.24
2022-10-19T06:11:14.488Z,7.27
2022-10-19T06:13:42.852Z,7.24
2022-10-19T06:16:10.748Z,7.19
2022-10-19T06:18:38.259Z,7.25
2022-10-19T06:21:07.178Z,7.29
2022-10-19T06:23:35.374Z,7.29
2022-10-19T06:26:04.309Z,7.38
2022-10-19T06:28:30.970Z,7.39
2022-10-19T06:30:58.692Z,7.42
2022-10-19T06:33:26.064Z,7.35
2022-10-19T06:35:52.848Z,7.26
2022-10-19T06:38:19.649Z,7.22
2022-10-19T06:40:46.404Z,7.12
2022-10-19T06:43:13.008Z,7.23
2022-10-19T06:45:39.746Z,7.36
2022-10-19T06:48:07.764Z,7.45
2022-10-19T06:50:35.317Z,7.23
2022-10-19T06:53:05.090Z,7.11
2022-10-19T06:55:31.671Z,6.99
2022-10-19T06:58:01.646Z,6.97
2022-10-19T07:00:29.480Z,6.81
2022-10-19T07:02:58.006Z,6.81
2022-10-19T07:05:24.694Z,6.81
2022-10-19T07:07:51.329Z,6.59
2022-10-19T07:10:18.070Z,6.26
2022-10-19T07:12:44.661Z,6.00
2022-10-19T07:15:11.196Z,6.08
2022-10-19T07:17:37.829Z,6.02
2022-10-19T07:20:04.818Z,6.13
2022-10-19T07:22:31.426Z,6.44
2022-10-19T07:24:58.368Z,6.74
2022-10-19T07:27:25.171Z,6.66
2022-10-19T07:29:51.727Z,6.67
2022-10-19T07:32:18.238Z,6.73
2022-10-19T07:34:44.850Z,6.76
2022-10-19T07:37:11.409Z,6.79
2022-10-19T07:39:38.052Z,6.83
2022-10-19T07:42:04.960Z,6.99
2022-10-19T07:44:31.627Z,7.15
2022-10-19T07:46:58.527Z,7.16
2022-10-19T07:49:25.243Z,7.17
2022-10-19T07:51:54.136Z,7.38
2022-10-19T07:54:21.475Z,7.61
2022-10-19T07:56:48.127Z,7.47
2022-10-19T07:59:16.912Z,7.41
2022-10-19T08:01:44.933Z,7.53
2022-10-19T08:04:59.085Z,7.53
2022-10-19T08:06:58.142Z,7.46
2022-10-19T08:12:15.199Z,7.46
2022-10-19T08:14:42.295Z,7.50
2022-10-19T08:17:11.647Z,7.59
2022-10-19T08:19:43.206Z,7.65
2022-10-19T08:22:10.525Z,7.84
2022-10-19T08:24:37.064Z,7.77
2022-10-19T08:27:03.929Z,7.50
2022-10-19T08:29:31.621Z,7.45
2022-10-19T08:31:59.034Z,7.51
2022-10-19T08:34:25.736Z,7.79
2022-10-19T08:36:52.354Z,7.74
2022-10-19T08:39:18.978Z,7.61
2022-10-19T08:42:06.774Z,7.48
2022-10-19T08:45:14.150Z,7.70
2022-10-19T08:48:18.188Z,7.76
2022-10-19T08:50:46.326Z,7.74
2022-10-19T08:53:22.449Z,7.83
2022-10-19T08:55:53.378Z,7.99
2022-10-19T08:58:31.040Z,8.04
2022-10-19T09:01:11.069Z,8.18
2022-10-19T09:03:56.743Z,8.32
2022-10-19T09:06:31.990Z,8.44
2022-10-19T09:08:59.566Z,8.52
2022-10-19T09:11:31.584Z,8.66
2022-10-19T09:14:18.440Z,8.75
2022-10-19T09:16:46.248Z,8.75
2022-10-19T09:19:22.005Z,8.87
2022-10-19T09:21:54.022Z,8.89
2022-10-19T09:24:32.758Z,8.96
2022-10-19T09:27:01.034Z,8.89
2022-10-19T09:29:39.047Z,8.89
2022-10-19T09:32:14.390Z,9.06
2022-10-19T09:34:46.311Z,9.08
2022-10-19T09:37:21.231Z,9.04
2022-10-19T09:40:16.860Z,9.21
2022-10-19T09:42:43.429Z,9.24
2022-10-19T09:45:34.245Z,9.22
2022-10-19T09:48:07.176Z,9.38
2022-10-19T09:50:43.584Z,9.52
2022-10-19T09:53:19.565Z,9.44
2022-10-19T09:55:53.501Z,9.43
2022-10-19T09:58:20.940Z,9.35
2022-10-19T10:00:55.894Z,9.30
2022-10-19T10:03:32.778Z,9.30
2022-10-19T10:06:04.653Z,9.23
2022-10-19T10:08:35.634Z,9.41
2022-10-19T10:11:07.127Z,9.58
2022-10-19T10:13:40.473Z,9.67
2022-10-19T10:16:10.398Z,9.70
2022-10-19T10:18:50.917Z,9.67
2022-10-19T10:21:26.250Z,9.57
2022-10-19T10:24:20.361Z,9.73
2022-10-19T10:26:51.801Z,9.75
2022-10-19T10:29:24.273Z,9.82
2022-10-19T10:32:15.510Z,9.95
2022-10-19T10:34:53.989Z,10.00
2022-10-19T10:37:29.931Z,9.86
2022-10-19T10:40:01.757Z,9.92
2022-10-19T10:42:43.143Z,10.05
2022-10-19T10:45:23.912Z,9.96
2022-10-19T10:47:52.005Z,10.12
2022-10-19T10:50:22.889Z,10.16
2022-10-19T10:52:58.707Z,10.05
2022-10-19T10:55:26.602Z,10.18
2022-10-19T10:58:05.027Z,10.17
2022-10-19T11:00:34.473Z,10.15
2022-10-19T11:03:19.710Z,10.26
2022-10-19T11:05:49.780Z,10.08
2022-10-19T11:08:25.354Z,10.18
2022-10-19T11:10:57.609Z,10.26
2022-10-19T11:13:30.948Z,10.20
2022-10-19T11:16:22.835Z,10.18
2022-10-19T11:18:56.444Z,10.18
2022-10-19T11:21:47.780Z,10.34
2022-10-19T11:24:35.396Z,10.43
2022-10-19T11:27:20.789Z,10.63
2022-10-19T11:30:29.174Z,10.63
2022-10-19T11:33:14.461Z,10.66
2022-10-19T11:36:33.288Z,10.70
2022-10-19T11:39:02.873Z,10.91
2022-10-19T11:41:39.217Z,11.08
2022-10-19T11:44:38.269Z,10.93
2022-10-19T11:47:43.799Z,10.92
2022-10-19T11:50:33.396Z,10.98
2022-10-19T11:53:15.945Z,10.94
2022-10-19T11:55:54.574Z,11.03
2022-10-19T11:58:49.171Z,11.26
2022-10-19T12:01:46.388Z,11.23
2022-10-19T12:04:12.986Z,11.27
2022-10-19T12:06:54.835Z,11.17
2022-10-19T12:09:48.862Z,11.21
2022-10-19T12:12:27.727Z,11.40
2022-10-19T12:15:03.535Z,11.84
2022-10-19T12:17:36.895Z,11.93
2022-10-19T12:20:19.024Z,12.34
2022-10-19T12:22:49.089Z,13.60
2022-10-19T12:25:17.558Z,14.75
2022-10-19T12:27:47.622Z,15.15
2022-10-19T12:30:20.674Z,15.38
2022-10-19T12:32:54.254Z,16.21
2022-10-19T12:35:21.271Z,17.19
2022-10-19T12:38:19.456Z,17.48
2022-10-19T12:41:12.445Z,17.72
2022-10-19T12:43:53.973Z,18.70
2022-10-19T12:46:42.945Z,18.83
2022-10-19T12:49:43.991Z,19.47
2022-10-19T12:52:12.086Z,18.74
2022-10-19T12:54:40.514Z,18.15
2022-10-19T12:57:25.948Z,17.61
2022-10-19T13:00:01.707Z,18.26
2022-10-19T13:02:35.704Z,18.05
2022-10-19T13:05:03.246Z,17.58
2022-10-19T13:07:33.210Z,17.16
2022-10-19T13:10:04.117Z,17.30
2022-10-19T13:12:43.637Z,18.25
2022-10-19T13:15:35.810Z,18.13
2022-10-19T13:18:04.189Z,18.18
2022-10-19T13:20:30.716Z,18.36
2022-10-19T13:23:00.226Z,18.11
2022-10-19T13:25:40.221Z,18.06
2022-10-19T13:28:06.813Z,18.86
2022-10-19T13:31:03.266Z,17.75
2022-10-19T13:33:44.495Z,18.01
2022-10-19T13:36:12.039Z,17.68
2022-10-19T13:38:43.336Z,18.00
2022-10-19T13:41:15.770Z,17.77
2022-10-19T13:44:18.273Z,16.94
2022-10-19T13:47:00.035Z,16.91
2022-10-19T13:50:15.182Z,17.50
2022-10-19T13:52:41.702Z,16.63
2022-10-19T13:55:37.478Z,16.61
2022-10-19T13:58:34.624Z,16.63
2022-10-19T14:01:38.319Z,16.12
2022-10-19T14:04:20.420Z,15.20
2022-10-19T14:07:04.554Z,15.05
2022-10-19T14:09:52.914Z,15.30
2022-10-19T14:12:27.172Z,14.93
2022-10-19T14:14:53.980Z,14.66
2022-10-19T14:17:28.045Z,14.40
2022-10-19T14:19:57.821Z,14.49
2022-10-19T14:22:36.262Z,14.23
2022-10-19T14:25:05.449Z,13.54
2022-10-19T14:27:33.399Z,13.16
2022-10-19T14:30:00.582Z,12.93
2022-10-19T14:32:29.477Z,13.16
2022-10-19T14:37:31.495Z,13.68
2022-10-19T14:40:07.617Z,13.45
2022-10-19T14:42:52.681Z,12.77
2022-10-19T14:45:26.233Z,12.48
2022-10-19T14:48:04.742Z,12.37
2022-10-19T14:50:40.292Z,12.06
2022-10-19T14:53:47.141Z,11.89
2022-10-19T14:56:38.433Z,11.94
2022-10-19T14:59:19.225Z,11.93
2022-10-19T15:01:55.537Z,11.72
2022-10-19T15:04:28.494Z,11.63
2022-10-19T15:06:57.891Z,11.41
2022-10-19T15:09:37.486Z,11.44
2022-10-19T15:12:20.342Z,11.45
2022-10-19T15:14:49.014Z,11.27
2022-10-19T15:17:30.208Z,11.14
2022-10-19T15:20:04.779Z,11.00
2022-10-19T15:22:32.066Z,10.92
2022-10-19T15:25:08.348Z,10.83
2022-10-19T15:27:37.318Z,10.78
2022-10-19T15:30:27.232Z,10.69
2022-10-19T15:33:02.997Z,10.50
2022-10-19T15:35:32.793Z,10.37
2022-10-19T15:38:02.867Z,10.21
2022-10-19T15:40:40.883Z,10.18
2022-10-19T15:43:35.046Z,10.04
2022-10-19T15:46:13.427Z,9.98
2022-10-19T15:48:51.204Z,9.90
2022-10-19T15:51:23.426Z,9.74
2022-10-19T15:53:55.686Z,9.71
2022-10-19T15:56:24.397Z,9.80
2022-10-19T15:58:52.982Z,9.88
2022-10-19T16:01:22.576Z,9.88
2022-10-19T16:03:49.675Z,9.77
2022-10-19T16:06:17.630Z,9.60
2022-10-19T16:08:47.591Z,9.58
2022-10-19T16:11:16.067Z,9.47
2022-10-19T16:13:45.996Z,9.37
2022-10-19T16:16:23.308Z,9.31
2022-10-19T16:18:50.609Z,9.19
2022-10-19T16:21:19.177Z,9.12
2022-10-19T16:23:46.230Z,9.06
2022-10-19T16:26:16.998Z,9.02
2022-10-19T16:28:44.534Z,8.87
2022-10-19T16:31:12.259Z,8.78
2022-10-19T16:33:44.032Z,8.66
2022-10-19T16:36:11.505Z,8.65
2022-10-19T16:38:38.670Z,8.57
2022-10-19T16:41:10.795Z,8.55
2022-10-19T16:43:46.335Z,8.56
2022-10-19T16:46:15.840Z,8.64
2022-10-19T16:48:42.589Z,8.73
2022-10-19T16:51:31.649Z,8.75
2022-10-19T16:53:58.978Z,8.78
2022-10-19T16:56:29.670Z,8.67
2022-10-19T16:58:59.994Z,8.52
2022-10-19T17:01:27.410Z,8.48
2022-10-19T17:03:54.938Z,8.44
2022-10-19T17:06:22.335Z,8.45
2022-10-19T17:11:38.755Z,8.32
2022-10-19T17:14:08.662Z,8.26
2022-10-19T17:16:36.786Z,8.38
2022-10-19T17:19:11.129Z,8.39
2022-10-19T17:21:39.010Z,8.29
2022-10-19T17:24:08.212Z,8.24
2022-10-19T17:26:38.645Z,8.23
2022-10-19T17:29:16.075Z,8.20
2022-10-19T17:31:43.532Z,8.18
2022-10-19T17:34:10.587Z,8.19
2022-10-19T17:39:10.886Z,8.23
2022-10-19T17:41:37.988Z,8.20
2022-10-19T17:44:05.385Z,8.18
2022-10-19T17:46:35.696Z,8.15
2022-10-19T17:49:03.021Z,8.16
2022-10-19T17:51:31.271Z,8.21
2022-10-19T17:54:00.330Z,8.18
2022-10-19T17:56:27.957Z,8.08
2022-10-19T17:58:55.864Z,8.10
2022-10-19T18:01:22.927Z,8.12
2022-10-19T18:03:50.374Z,8.10
2022-10-19T18:06:25.791Z,8.01
2022-10-19T18:08:54.404Z,7.99
2022-10-19T18:11:25.109Z,7.95
2022-10-19T18:13:54.782Z,7.93
2022-10-19T18:16:33.875Z,7.90
2022-10-19T18:19:02.228Z,7.88
2022-10-19T18:21:34.322Z,7.88
2022-10-19T18:24:02.424Z,7.90
2022-10-19T18:26:32.411Z,7.89
2022-10-19T18:29:00.926Z,7.89
2022-10-19T18:31:30.598Z,7.88
2022-10-19T18:33:59.848Z,7.86
2022-10-19T18:36:26.781Z,7.84
2022-10-19T18:38:55.429Z,7.84
2022-10-19T18:41:22.746Z,7.85
2022-10-19T18:44:05.050Z,7.79
2022-10-19T18:46:34.379Z,7.75
2022-10-19T18:49:01.791Z,7.72
2022-10-19T18:51:29.101Z,7.68
2022-10-19T18:53:55.668Z,7.67
2022-10-19T18:56:23.017Z,7.66
2022-10-19T18:58:50.308Z,7.64
2022-10-19T19:01:27.057Z,7.61
2022-10-19T19:03:57.334Z,7.58
2022-10-19T19:06:28.901Z,7.57
2022-10-19T19:08:57.409Z,7.55
2022-10-19T19:11:26.615Z,7.56
2022-10-19T19:13:59.555Z,7.66
2022-10-19T19:16:28.037Z,7.74
2022-10-19T19:18:55.281Z,7.71
2022-10-19T19:21:28.014Z,7.66
2022-10-19T19:23:57.397Z,7.63
2022-10-19T19:26:26.335Z,7.64
2022-10-19T19:28:53.006Z,7.57
2022-10-19T19:31:20.022Z,7.56
2022-10-19T19:33:47.187Z,7.55
2022-10-19T19:36:15.870Z,7.56
2022-10-19T19:38:43.072Z,7.59
2022-10-19T19:41:13.226Z,7.62
2022-10-19T19:43:40.829Z,7.60
2022-10-19T19:46:12.463Z,7.64
2022-10-19T19:48:41.328Z,7.70
2022-10-19T19:51:13.973Z,7.75
2022-10-19T19:53:40.611Z,7.70
2022-10-19T19:56:08.985Z,7.73
2022-10-19T19:58:36.083Z,7.74
2022-10-19T20:01:13.656Z,7.87
2022-10-19T20:03:41.050Z,7.94
2022-10-19T20:06:08.024Z,7.98
2022-10-19T20:08:36.232Z,8.02
2022-10-19T20:11:05.350Z,8.06
2022-10-19T20:13:32.417Z,8.04
2022-10-19T20:16:02.378Z,8.04
2022-10-19T20:18:29.594Z,8.00
2022-10-19T20:21:01.064Z,7.99
2022-10-19T20:23:28.170Z,7.93
2022-10-19T20:25:56.298Z,7.86
2022-10-19T20:28:24.933Z,7.81
2022-10-19T20:31:05.190Z,7.83
2022-10-19T20:33:34.263Z,7.81
2022-10-19T20:36:12.696Z,7.75
2022-10-19T20:38:40.586Z,7.72
2022-10-19T20:41:09.092Z,7.63
2022-10-19T20:43:37.105Z,7.48
2022-10-19T20:46:04.817Z,7.34
2022-10-19T20:48:31.681Z,7.35
2022-10-19T20:51:15.007Z,7.33
2022-10-19T20:53:47.328Z,7.27
2022-10-19T20:56:16.928Z,7.21
2022-10-19T20:58:44.907Z,7.20
2022-10-19T21:01:17.517Z,7.24
2022-10-19T21:03:48.936Z,7.23
2022-10-19T21:06:15.688Z,7.20
2022-10-19T21:08:42.696Z,7.18
2022-10-19T21:11:22.287Z,7.14
2022-10-19T21:13:52.315Z,7.13
2022-10-19T21:16:21.648Z,7.12
2022-10-19T21:18:49.622Z,7.10
2022-10-19T21:21:28.059Z,6.96
2022-10-19T21:23:57.982Z,6.86
2022-10-19T21:26:26.139Z,6.81
2022-10-19T21:28:53.282Z,6.77
2022-10-19T21:31:21.686Z,6.71
2022-10-19T21:33:48.800Z,6.67
2022-10-19T21:36:15.958Z,6.68
2022-10-19T21:38:42.891Z,6.63
2022-10-19T21:41:15.163Z,6.61
2022-10-19T21:43:42.314Z,6.53
2022-10-19T21:46:13.759Z,6.48
2022-10-19T21:48:40.916Z,6.51
2022-10-19T21:51:16.562Z,6.47
2022-10-19T21:53:43.777Z,6.47
2022-10-19T21:56:10.319Z,6.48
2022-10-19T21:58:36.908Z,6.50
2022-10-19T22:01:06.924Z,6.51
2022-10-19T22:03:33.946Z,6.47
2022-10-19T22:06:00.790Z,6.49
2022-10-19T22:08:27.482Z,6.51
2022-10-19T22:10:54.194Z,6.49
2022-10-19T22:13:20.732Z,6.47
2022-10-19T22:15:47.254Z,6.48
2022-10-19T22:18:13.773Z,6.49
2022-10-19T22:20:40.654Z,6.48
2022-10-19T22:23:08.112Z,6.46
2022-10-19T22:25:35.434Z,6.45
2022-10-19T22:28:01.980Z,6.39
2022-10-19T22:30:28.593Z,6.32
2022-10-19T22:32:55.897Z,6.26
2022-10-19T22:35:22.461Z,6.28
2022-10-19T22:37:49.041Z,6.26
2022-10-19T22:40:15.628Z,6.24
2022-10-19T22:42:42.178Z,6.27
2022-10-19T22:45:08.940Z,6.34
2022-10-19T22:47:35.585Z,6.37
2022-10-19T22:50:02.117Z,6.38
2022-10-19T22:52:28.655Z,6.33
2022-10-19T22:54:55.311Z,6.31
2022-10-19T22:57:21.947Z,6.34
2022-10-19T22:59:48.438Z,6.36
2022-10-19T23:02:15.005Z,6.37
2022-10-19T23:04:41.670Z,6.44
2022-10-19T23:07:08.255Z,6.43
2022-10-19T23:09:34.920Z,6.44
2022-10-19T23:12:01.390Z,6.47
2022-10-19T23:14:27.934Z,6.51
2022-10-19T23:16:54.455Z,6.49
2022-10-19T23:19:21.054Z,6.51
2022-10-19T23:21:47.633Z,6.50
2022-10-19T23:24:14.175Z,6.54
2022-10-19T23:26:40.809Z,6.45
2022-10-19T23:29:07.395Z,6.37
2022-10-19T23:31:33.988Z,6.38
2022-10-19T23:34:00.648Z,6.39
2022-10-19T23:36:29.077Z,6.37
2022-10-19T23:38:57.833Z,6.33
2022-10-19T23:41:24.644Z,6.37
2022-10-19T23:43:51.652Z,6.41
2022-10-19T23:46:18.876Z,6.37
2022-10-19T23:48:45.666Z,6.35
2022-10-19T23:51:15.270Z,6.33
2022-10-19T23:53:44.549Z,6.36
2022-10-19T23:56:17.059Z,6.38
2022-10-19T23:58:43.842Z,6.40
